Language selection

Weather shortcuts

Juan de Fuca Strait - east entrance: Past 24 Hour Conditions

 

Sentry Shoal - 46131

08:00 PM PDT 17 May 2024Buoy position: 49.92N 125.0W
Disclaimer

This table is a summary of hourly weather conditions for the past 24 hours.
Please note that these observations might not always be representative of weather conditions over their associated marine area.

Date / Time
(PDT)
Wind(knots) Wave height(m) Wave period(s) Pressure(kPa) Air tempC) Water tempC)
17 May 2024
20:00 NW 6 gusts 7 0.25 3.1 101.8 13 11
19:00 W 10 gusts 12 0.29 2.6 101.8 13 11
18:00 WSW 7 gusts 9 0.39 3.1 101.9 13 11
17:00 WNW 13 gusts 15 0.32 2.8 101.9 13 11
16:00 NNE 9 gusts 11 0.30 3.2 101.9 13 11
15:00 NE 13 gusts 16 0.39 2.9 101.9 13 11
14:00 NE 12 gusts 15 0.39 2.9 101.9 13 11
13:00 NE 15 gusts 18 0.34 2.8 101.9 13 11
12:00 NW 13 gusts 15 0.29 2.7 101.9 12 11
11:00 NNW 15 gusts 18 0.34 2.9 101.9 12 11
10:00 NW 12 gusts 14 0.28 2.5 101.9 11 11
9:00 NW 12 gusts 15 0.28 2.9 101.9 11 11
8:00 NNW 14 gusts 18 0.38 2.9 101.8 11 11
7:00 NNW 14 gusts 17 0.37 2.6 101.8 10 11
6:00 N 19 gusts 23 0.44 2.6 101.7 10 10
5:00 W 20 gusts 24 0.53 2.8 101.6 10 10
4:00 NW 16 gusts 20 0.50 3.4 101.6 10 10
3:00 W 19 gusts 22 0.57 3.6 101.5 10 10
2:00 W 19 gusts 24 0.61 3.5 101.4 10 10
1:00 W 19 gusts 23 0.57 3.3 101.4 10 11
0:00 W 19 gusts 24 0.74 3.4 101.4 11 10
16 May 2024
23:00 W 24 gusts 29 0.77 3.5 101.3 11 11
22:00 WNW 21 gusts 28 0.67 3.8 101.3 11 11
21:00 WNW 23 gusts 30 0.85 3.8 101.2 12 11
20:00 NW 22 gusts 25 0.73 4.0 101.1 12 11

Zoom-in to make a selection

Map of Pacific - Georgia Basin marine weather areas Sentry Shoal - 46131 Halibut Bank - 46146 La Perouse Bank - 46206 Georgia Strait - 46303 English Bay – 46304 Discovery Island Esquimalt Harbour Kelp Reefs Malahat Race Rocks Lightstation Saturna Island Sheringham Point University of Victoria Victoria Gonzales Victoria Int'l Airport Ballenas Islands Campbell River Airport Comox Airport Entrance Island Fanny Island Nanaimo Airport Sisters Islets Estevan Point Port Alberni Tofino Airport Grief Point Howe Sound - Pam Rocks Powell River Airport Sechelt Squamish Airport Point Atkinson Sand Heads Lightstation Tsawwassen Ferry Terminal Vancouver Int'l Airport Vancouver Harbour West Vancouver
Legend:
buoy Buoy
land station Land Station

Pacific - Georgia Basin Area

Another Region

Date modified: